Time;durP1;ratioP1;P1;durP2;ratioP2;P2;SDS_P1;SDS_P2;PMS_P1;PMS_P2;Temp;Humidity;BMP_temperature;BMP_pressure;BME280_temperature;BME280_humidity;BME280_pressure;Samples;Min_cycle;Max_cycle;Signal;HPM_P1;HPM_P2
2022/03/20 00:01:21;;;;;;;20.98;18.63;;;;;;;0.94;55.09;102233.09;10460948;28;20498;-69
2022/03/20 00:06:23;;;;;;;22.00;18.02;;;;;;;1.17;52.77;102225.41;10446020;28;20044;-69
2022/03/20 00:11:27;;;;;;;24.35;17.98;;;;;;;1.01;52.51;102229.03;10460561;28;20033;-69
2022/03/20 00:16:29;;;;;;;20.33;17.30;;;;;;;0.74;54.25;102224.47;10461379;28;20049;-69
2022/03/20 00:21:31;;;;;;;20.80;18.27;;;;;;;0.65;55.25;102221.47;10442734;28;20120;-70
2022/03/20 00:26:34;;;;;;;19.83;17.98;;;;;;;0.57;56.11;102214.19;10463205;28;20075;-70
2022/03/20 00:31:35;;;;;;;20.98;18.90;;;;;;;0.66;56.55;102215.47;10443273;28;20052;-70
2022/03/20 00:36:37;;;;;;;24.80;18.85;;;;;;;0.45;56.84;102207.69;10460861;28;20131;-70
2022/03/20 00:41:39;;;;;;;20.52;18.50;;;;;;;0.32;57.13;102218.31;10459926;28;20059;-70
2022/03/20 00:46:40;;;;;;;23.17;19.80;;;;;;;0.44;56.87;102215.34;10461094;28;20051;-70
2022/03/20 00:51:43;;;;;;;20.55;18.45;;;;;;;0.41;56.66;102210.94;10461416;28;20072;-73
2022/03/20 00:56:44;;;;;;;24.10;19.23;;;;;;;0.21;56.82;102211.75;10469876;28;20052;-73
2022/03/20 01:01:48;;;;;;;21.05;18.95;;;;;;;0.29;57.83;102209.50;10470647;28;20045;-74
2022/03/20 01:06:49;;;;;;;26.15;19.23;;;;;;;0.07;57.65;102207.66;10469055;28;20052;-74
2022/03/20 01:11:51;;;;;;;23.50;18.92;;;;;;;0.37;57.38;102202.97;10471583;28;20418;-73
2022/03/20 01:16:54;;;;;;;29.30;19.52;;;;;;;0.29;57.31;102204.34;10450329;28;20049;-73
2022/03/20 01:21:56;;;;;;;21.25;19.00;;;;;;;-0.13;57.64;102201.59;10468192;28;20041;-73
2022/03/20 01:26:58;;;;;;;27.90;19.58;;;;;;;-0.14;59.24;102185.16;10467925;28;20048;-74
2022/03/20 01:32:00;;;;;;;21.85;19.63;;;;;;;-0.15;58.63;102196.31;10452277;28;20429;-73
2022/03/20 01:37:02;;;;;;;27.65;18.02;;;;;;;-0.13;59.22;102188.66;10469017;28;20052;-73
2022/03/20 01:42:05;;;;;;;25.35;20.20;;;;;;;0.00;60.47;102178.06;10452038;28;20112;-73
2022/03/20 01:47:08;;;;;;;20.33;18.33;;;;;;;-0.24;59.71;102179.50;10450089;28;20052;-73
2022/03/20 01:52:14;;;;;;;23.60;20.10;;;;;;;-0.40;60.19;102183.97;10470752;28;20045;-73
2022/03/20 01:57:17;;;;;;;27.88;19.33;;;;;;;-0.57;61.41;102177.13;10467076;28;20057;-73
2022/03/20 02:02:22;;;;;;;24.92;18.98;;;;;;;-0.52;61.74;102167.88;10467046;28;20075;-73
2022/03/20 02:07:25;;;;;;;22.15;19.40;;;;;;;-0.23;59.70;102156.31;10466249;28;20049;-73
2022/03/20 02:12:28;;;;;;;24.92;19.10;;;;;;;-0.29;60.44;102158.63;10469295;28;20047;-73
2022/03/20 02:17:30;;;;;;;26.73;19.10;;;;;;;-0.18;59.33;102156.53;10452327;28;20041;-73
2022/03/20 02:22:32;;;;;;;25.48;19.95;;;;;;;-0.20;58.46;102153.88;10450199;28;20051;-73
2022/03/20 02:27:38;;;;;;;24.92;18.00;;;;;;;-0.27;59.02;102149.22;10448476;28;20132;-74
2022/03/20 02:32:46;;;;;;;26.77;17.90;;;;;;;-0.41;59.70;102148.59;10466145;28;20552;-73
2022/03/20 02:37:51;;;;;;;23.77;18.52;;;;;;;-0.68;60.59;102153.34;10468900;28;20132;-73
2022/03/20 02:42:54;;;;;;;26.27;19.55;;;;;;;-0.62;61.45;102158.81;10448226;28;20037;-73
2022/03/20 02:47:58;;;;;;;24.25;19.25;;;;;;;-0.56;61.92;102156.53;10466516;28;20040;-73
2022/03/20 02:53:14;;;;;;;23.10;19.38;;;;;;;-0.59;62.32;102156.38;10467291;28;20402;-73
2022/03/20 02:58:17;;;;;;;21.15;18.95;;;;;;;-0.68;62.69;102155.03;10469053;28;20056;-73
2022/03/20 03:03:19;;;;;;;26.13;18.38;;;;;;;-0.68;62.55;102158.50;10467015;28;20068;-73
2022/03/20 03:13:41;;;;;;;22.48;18.45;;;;;;;-0.87;63.38;102146.41;10465992;28;20382;-73
2022/03/20 03:18:47;;;;;;;19.88;17.75;;;;;;;-0.93;63.57;102145.22;10467717;28;20136;-74
2022/03/20 03:23:48;;;;;;;24.13;19.65;;;;;;;-0.94;63.47;102154.66;10464858;28;20116;-73
2022/03/20 03:28:50;;;;;;;23.98;18.63;;;;;;;-1.12;63.34;102152.06;10464083;28;20045;-73
2022/03/20 03:39:12;;;;;;;21.48;17.30;;;;;;;-1.03;64.40;102152.53;10465220;28;20049;-74
2022/03/20 03:44:14;;;;;;;20.02;17.92;;;;;;;-0.59;63.06;102158.06;10449038;28;20098;-73
2022/03/20 03:49:15;;;;;;;22.58;17.60;;;;;;;-0.62;60.05;102152.75;10446889;28;20206;-73
2022/03/20 03:54:17;;;;;;;22.65;17.27;;;;;;;-0.72;60.15;102156.59;10463658;28;20044;-73
2022/03/20 03:59:18;;;;;;;20.02;17.60;;;;;;;-0.85;60.48;102156.81;10444790;28;20045;-73
2022/03/20 04:04:20;;;;;;;20.55;17.42;;;;;;;-0.71;60.29;102160.94;10465450;28;20103;-74
2022/03/20 04:09:22;;;;;;;24.65;16.08;;;;;;;-0.86;60.85;102155.94;10444159;28;20503;-73
2022/03/20 04:14:24;;;;;;;18.17;16.30;;;;;;;-0.82;61.25;102155.28;10461931;28;20490;-73
2022/03/20 04:19:26;;;;;;;19.20;15.90;;;;;;;-1.04;62.33;102150.75;10461636;28;20085;-73
2022/03/20 04:24:28;;;;;;;23.25;17.05;;;;;;;-0.99;63.20;102148.41;10446988;28;20049;-73
2022/03/20 04:29:31;;;;;;;18.27;16.55;;;;;;;-1.08;63.63;102141.09;10460865;28;20052;-73
2022/03/20 04:34:35;;;;;;;17.90;15.98;;;;;;;-1.31;63.93;102136.50;10462500;28;20048;-73
2022/03/20 04:39:38;;;;;;;21.85;17.17;;;;;;;-1.18;64.71;102138.88;10462330;28;20039;-73
2022/03/20 04:44:40;;;;;;;19.48;17.25;;;;;;;-1.26;64.63;102135.03;10463290;28;20036;-72
2022/03/20 05:00:23;;;;;;;18.95;15.20;;;;;;;-1.09;63.43;102144.50;10448478;22;20041;-70
2022/03/20 05:05:25;;;;;;;15.77;14.18;;;;;;;-1.22;62.44;102142.09;10419593;28;20053;-70
2022/03/20 05:15:47;;;;;;;20.30;15.35;;;;;;;-0.80;60.23;102148.50;10401321;28;20057;-70
2022/03/20 05:20:51;;;;;;;17.58;15.38;;;;;;;-1.18;61.40;102149.19;10419554;28;20046;-70
2022/03/20 05:25:53;;;;;;;18.00;16.13;;;;;;;-1.20;61.80;102155.97;10417627;28;20041;-70
2022/03/20 05:30:55;;;;;;;20.45;16.00;;;;;;;-0.99;63.00;102155.25;10418234;28;20052;-70
2022/03/20 05:35:56;;;;;;;17.55;13.55;;;;;;;-0.79;60.25;102154.53;10417955;28;20050;-70
2022/03/20 05:46:18;;;;;;;15.00;11.98;;;;;;;0.29;50.97;102147.44;10426266;28;20053;-70
2022/03/20 05:51:20;;;;;;;12.30;11.10;;;;;;;0.82;49.64;102154.00;10424590;28;20045;-71
2022/03/20 06:01:42;;;;;;;15.13;12.20;;;;;;;1.68;46.91;102166.09;10424801;28;20091;-71
2022/03/20 06:06:44;;;;;;;14.73;11.60;;;;;;;1.80;46.17;102163.97;10425313;28;20057;-71
2022/03/20 06:11:46;;;;;;;13.13;11.80;;;;;;;2.14;45.07;102171.31;10425570;28;20454;-70
2022/03/20 06:16:48;;;;;;;13.55;11.27;;;;;;;3.41;42.28;102169.56;10424766;28;20487;-70
2022/03/20 06:21:50;;;;;;;12.63;11.02;;;;;;;4.12;41.45;102170.88;10423772;28;20084;-70
2022/03/20 06:26:51;;;;;;;12.70;11.40;;;;;;;4.45;40.45;102168.34;10424575;28;20045;-70
2022/03/20 06:31:53;;;;;;;14.05;11.95;;;;;;;4.52;39.76;102172.00;10424314;28;20041;-71
2022/03/20 06:36:57;;;;;;;13.00;11.80;;;;;;;4.30;39.75;102180.94;10424544;28;20021;-72
2022/03/20 06:42:00;;;;;;;12.77;11.43;;;;;;;4.42;40.05;102181.25;10424625;28;20045;-70
2022/03/20 06:47:02;;;;;;;12.30;11.05;;;;;;;4.60;39.56;102187.81;10424472;28;20500;-70
2022/03/20 06:52:04;;;;;;;12.32;10.88;;;;;;;4.76;38.58;102184.78;10405662;28;20046;-71
2022/03/20 06:57:05;;;;;;;12.10;10.88;;;;;;;4.95;38.04;102192.22;10422979;28;20042;-70
2022/03/20 07:02:07;;;;;;;14.32;11.80;;;;;;;5.14;38.60;102191.00;10423567;28;20050;-71
2022/03/20 07:07:09;;;;;;;11.95;10.85;;;;;;;5.29;37.50;102193.09;10405319;28;20041;-70
2022/03/20 07:12:12;;;;;;;11.65;10.35;;;;;;;5.46;36.77;102193.50;10405193;28;20056;-70
2022/03/20 07:17:16;;;;;;;12.55;11.35;;;;;;;5.68;36.70;102187.94;10422503;28;20049;-70
2022/03/20 07:22:19;;;;;;;11.80;10.70;;;;;;;6.00;35.28;102190.41;10421632;28;20045;-70
2022/03/20 07:32:43;;;;;;;10.95;9.85;;;;;;;6.04;35.60;102205.28;10423049;28;20042;-72
2022/03/20 07:37:45;;;;;;;11.93;9.85;;;;;;;6.07;35.36;102195.78;10424738;28;20046;-71
2022/03/20 07:42:47;;;;;;;12.57;10.57;;;;;;;6.35;34.88;102182.41;10421131;28;20107;-70
2022/03/20 07:47:48;;;;;;;11.68;10.50;;;;;;;6.21;35.44;102187.38;10420404;28;20046;-70
2022/03/20 07:52:50;;;;;;;11.82;10.73;;;;;;;6.47;34.84;102193.13;10420993;28;20506;-71
2022/03/20 07:57:52;;;;;;;11.38;10.27;;;;;;;6.62;34.27;102184.69;10420746;28;20396;-71
2022/03/20 08:02:54;;;;;;;13.15;10.07;;;;;;;6.79;33.78;102184.13;10420797;28;20037;-71
2022/03/20 08:07:56;;;;;;;10.57;9.20;;;;;;;6.97;33.77;102187.94;10421179;28;20376;-71
2022/03/20 08:12:58;;;;;;;10.60;9.50;;;;;;;7.23;33.42;102191.00;10421500;28;20510;-71
2022/03/20 08:18:00;;;;;;;12.10;8.60;;;;;;;7.69;32.33;102189.06;10419956;28;20049;-71
2022/03/20 08:23:06;;;;;;;10.33;9.40;;;;;;;7.88;32.57;102183.25;10420770;28;20163;-71
2022/03/20 08:28:11;;;;;;;9.25;8.20;;;;;;;8.08;32.51;102176.53;10402745;28;20057;-71
2022/03/20 08:33:15;;;;;;;9.43;8.40;;;;;;;8.16;31.73;102188.84;10421481;28;20044;-70
2022/03/20 08:38:18;;;;;;;10.00;8.90;;;;;;;8.34;30.77;102168.97;10402924;28;20139;-71
2022/03/20 08:43:22;;;;;;;8.48;7.68;;;;;;;8.45;30.71;102182.22;10419998;28;20034;-70
2022/03/20 08:48:24;;;;;;;8.85;8.05;;;;;;;8.52;31.39;102183.19;10421967;28;20049;-70
2022/03/20 08:53:25;;;;;;;9.65;7.45;;;;;;;8.76;29.84;102167.69;10420938;28;20045;-68
2022/03/20 08:58:27;;;;;;;9.10;8.20;;;;;;;9.15;30.88;102162.81;10400741;28;20049;-67
2022/03/20 09:03:29;;;;;;;8.77;7.88;;;;;;;9.15;29.29;102161.06;10418429;28;20549;-67
2022/03/20 09:08:31;;;;;;;8.30;7.60;;;;;;;9.51;29.32;102163.06;10400636;28;20046;-69
2022/03/20 09:13:35;;;;;;;10.07;6.60;;;;;;;9.50;28.85;102153.44;10404730;28;20069;-68
2022/03/20 09:23:58;;;;;;;8.05;7.35;;;;;;;9.76;27.60;102147.47;10407887;28;20049;-67
2022/03/20 09:29:00;;;;;;;8.65;7.85;;;;;;;9.89;27.83;102141.41;10408111;28;20071;-67
2022/03/20 09:34:02;;;;;;;7.85;7.07;;;;;;;10.27;27.45;102136.34;10425395;28;20045;-66
2022/03/20 09:39:03;;;;;;;8.13;7.32;;;;;;;10.17;27.20;102141.50;10426165;28;20045;-67
2022/03/20 09:44:05;;;;;;;8.55;7.85;;;;;;;10.32;28.38;102131.97;10425923;28;20487;-68
2022/03/20 09:49:13;;;;;;;7.68;6.68;;;;;;;10.71;27.44;102119.75;10406713;28;20546;-67
2022/03/20 09:54:15;;;;;;;6.95;6.35;;;;;;;10.72;25.79;102118.03;10423749;28;20053;-68
2022/03/20 09:59:16;;;;;;;6.85;6.22;;;;;;;10.58;25.90;102121.50;10424633;28;20103;-66
2022/03/20 10:04:18;;;;;;;6.95;6.35;;;;;;;10.77;26.40;102117.13;10405980;28;20049;-67
2022/03/20 10:09:23;;;;;;;9.50;7.25;;;;;;;11.18;25.71;102104.84;10423612;28;20045;-69
2022/03/20 10:14:29;;;;;;;7.22;6.50;;;;;;;11.54;26.56;102103.88;10423937;28;20039;-66
2022/03/20 10:19:32;;;;;;;7.50;6.80;;;;;;;11.58;24.74;102103.88;10424813;28;20056;-67
2022/03/20 10:24:39;;;;;;;7.30;6.60;;;;;;;11.87;24.21;102105.59;10422006;28;20045;-68
2022/03/20 10:30:00;;;;;;;10.38;5.93;;;;;;;11.83;24.07;102106.47;10423193;28;20041;-69
2022/03/20 10:35:05;;;;;;;9.02;6.00;;;;;;;11.68;23.89;102096.81;10423553;28;20437;-68
2022/03/20 10:40:28;;;;;;;6.00;5.50;;;;;;;11.41;24.00;102095.13;10390701;28;20051;-67
2022/03/20 10:46:00;;;;;;;6.43;5.90;;;;;;;12.31;23.73;102084.25;10422897;28;20057;-68
2022/03/20 10:51:04;;;;;;;5.95;5.35;;;;;;;11.75;24.38;102105.59;10424042;28;20041;-67
2022/03/20 10:56:09;;;;;;;6.10;5.22;;;;;;;11.96;23.92;102092.38;10424143;28;20446;-67
2022/03/20 11:01:12;;;;;;;7.78;7.07;;;;;;;12.07;24.60;102084.38;10444378;22;20041;-69
2022/03/20 11:06:14;;;;;;;6.82;6.22;;;;;;;12.57;23.76;102083.19;10463515;28;20045;-69
2022/03/20 11:11:18;;;;;;;6.20;5.60;;;;;;;12.63;24.26;102085.81;10463261;28;20049;-69
2022/03/20 11:16:23;;;;;;;4.82;4.43;;;;;;;12.92;22.46;102060.91;10445560;28;20045;-68
2022/03/20 11:21:27;;;;;;;6.72;4.60;;;;;;;12.94;22.84;102067.94;10463145;28;20044;-68
2022/03/20 11:26:31;;;;;;;5.65;5.15;;;;;;;12.76;22.24;102049.63;10465289;28;20059;-69
2022/03/20 11:31:35;;;;;;;5.20;4.72;;;;;;;12.77;22.36;102039.06;10463259;28;20108;-67
2022/03/20 11:36:59;;;;;;;5.93;5.32;;;;;;;12.84;22.60;102053.09;10462439;28;20041;-67
2022/03/20 11:42:25;;;;;;;6.35;4.53;;;;;;;12.51;22.28;102043.69;10462481;28;20037;-67
2022/03/20 11:47:29;;;;;;;4.18;3.85;;;;;;;12.19;22.47;102033.38;10444928;28;20083;-67
2022/03/20 11:53:04;;;;;;;5.05;4.32;;;;;;;12.54;22.35;102023.44;10462619;28;20079;-67
2022/03/20 11:58:26;;;;;;;5.38;4.55;;;;;;;12.76;21.75;102039.09;10423717;28;20061;-67
2022/03/20 12:03:55;;;;;;;4.75;4.25;;;;;;;12.71;23.38;102028.56;10444573;28;20068;-66
2022/03/20 12:09:06;;;;;;;5.10;4.70;;;;;;;12.62;23.17;102015.47;10446710;28;20057;-68
2022/03/20 12:14:33;;;;;;;8.05;4.18;;;;;;;12.92;22.29;102011.63;10444329;28;20116;-67
2022/03/20 12:19:36;;;;;;;5.10;4.65;;;;;;;12.20;23.54;102006.97;10461933;28;20166;-67
2022/03/20 12:24:51;;;;;;;5.43;4.72;;;;;;;12.31;22.90;102014.81;10443113;28;20125;-68
2022/03/20 12:30:03;;;;;;;4.97;4.45;;;;;;;11.91;24.06;102007.19;10442804;28;20403;-68
2022/03/20 12:35:05;;;;;;;7.65;4.25;;;;;;;11.85;23.11;102002.78;10461696;28;20091;-68
2022/03/20 12:40:18;;;;;;;5.10;4.40;;;;;;;12.07;23.27;102000.91;10460427;28;20079;-68
2022/03/20 12:45:43;;;;;;;4.40;4.00;;;;;;;12.28;23.29;101999.88;10461064;28;20072;-68
2022/03/20 12:51:20;;;;;;;4.85;3.65;;;;;;;12.53;24.16;101990.03;10459467;28;20107;-68
2022/03/20 12:56:28;;;;;;;3.95;3.55;;;;;;;12.23;23.20;101985.00;10334300;28;20062;-67
2022/03/20 13:01:39;;;;;;;4.22;3.75;;;;;;;11.92;22.39;101981.69;10333853;28;20158;-67
2022/03/20 13:06:42;;;;;;;11.57;4.05;;;;;;;11.86;22.80;101994.03;10317644;28;20054;-68
2022/03/20 13:11:53;;;;;;;4.00;3.65;;;;;;;12.01;23.63;101984.28;10333254;28;20062;-67
2022/03/20 13:16:58;;;;;;;4.28;3.88;;;;;;;12.04;23.86;101977.22;10334842;28;20070;-68
2022/03/20 13:22:05;;;;;;;4.20;3.80;;;;;;;12.10;22.80;101971.03;10332432;28;20057;-67
2022/03/20 13:27:09;;;;;;;3.55;3.25;;;;;;;12.29;22.57;101971.75;10298924;28;20055;-67
2022/03/20 13:32:13;;;;;;;10.20;4.72;;;;;;;12.25;23.81;101970.03;10394954;28;20061;-67
2022/03/20 13:37:16;;;;;;;4.97;4.55;;;;;;;12.30;23.59;101965.59;10434344;28;20104;-68
2022/03/20 13:42:20;;;;;;;4.38;4.03;;;;;;;12.40;21.10;101972.56;10461474;28;20068;-68
2022/03/20 13:47:27;;;;;;;2.92;1.92;;;;;;;12.08;21.82;101963.13;10462133;28;20087;-69
2022/03/20 13:57:32;;;;;;;3.72;2.65;;;;;;;12.44;21.40;101963.75;10461717;28;20445;-67
2022/03/20 14:02:42;;;;;;;4.00;2.45;;;;;;;12.47;22.54;101947.88;10469352;28;20505;-68
2022/03/20 14:07:44;;;;;;;3.70;2.65;;;;;;;12.19;21.87;101957.78;10466141;28;20067;-67
2022/03/20 14:12:46;;;;;;;5.57;2.67;;;;;;;12.14;21.71;101951.66;10465745;28;20048;-68
2022/03/20 14:17:53;;;;;;;3.05;2.75;;;;;;;12.18;21.79;101957.81;10428921;28;20050;-67
2022/03/20 14:22:55;;;;;;;5.18;2.63;;;;;;;12.10;22.62;101956.09;10450680;28;20117;-68
2022/03/20 14:27:59;;;;;;;2.65;2.45;;;;;;;12.12;21.11;101956.94;10468659;28;20102;-68
2022/03/20 14:44:09;;;;;;;4.22;2.50;;;;;;;11.68;21.48;101958.97;10467090;28;20052;-66
2022/03/20 14:49:11;;;;;;;3.38;2.63;;;;;;;11.72;22.64;101961.56;10467495;28;20051;-67
2022/03/20 14:54:15;;;;;;;4.07;3.05;;;;;;;11.84;21.78;101953.63;10467727;28;20049;-66
2022/03/20 14:59:17;;;;;;;4.10;2.70;;;;;;;11.90;21.19;101955.34;10467070;28;20040;-66
2022/03/20 15:04:19;;;;;;;4.10;3.03;;;;;;;11.72;22.14;101952.78;10466777;28;20047;-67
2022/03/20 15:14:42;;;;;;;4.40;2.80;;;;;;;11.56;22.94;101958.16;10469547;28;20041;-68
2022/03/20 15:19:54;;;;;;;2.92;2.60;;;;;;;11.52;22.61;101951.16;10471901;28;20045;-68
2022/03/20 15:25:05;;;;;;;3.10;2.63;;;;;;;11.41;22.86;101947.69;10473515;28;20052;-69
2022/03/20 15:30:07;;;;;;;3.88;3.38;;;;;;;11.24;22.77;101949.50;10456465;28;20080;-69
2022/03/20 15:35:10;;;;;;;4.47;4.07;;;;;;;11.24;23.01;101944.25;10469439;28;20041;-68
2022/03/20 15:40:12;;;;;;;4.15;3.75;;;;;;;11.24;22.81;101947.75;10469358;28;20049;-68
2022/03/20 15:45:15;;;;;;;7.47;6.18;;;;;;;11.23;23.75;101943.38;10470852;28;20109;-68
2022/03/20 15:50:19;;;;;;;4.50;3.70;;;;;;;11.11;23.70;101953.94;10452799;28;20053;-69
2022/03/20 15:55:21;;;;;;;3.83;3.50;;;;;;;11.05;23.31;101957.47;10471423;28;20044;-69
2022/03/20 16:00:29;;;;;;;4.20;3.80;;;;;;;11.18;23.59;101944.28;10474098;28;20045;-69
2022/03/20 16:05:38;;;;;;;5.18;4.53;;;;;;;11.05;24.35;101957.47;10473519;28;20045;-69
2022/03/20 16:10:40;;;;;;;5.68;4.63;;;;;;;11.04;24.31;101961.00;10455963;28;20049;-69
2022/03/20 16:15:44;;;;;;;4.90;4.40;;;;;;;10.96;24.25;101956.63;10473752;28;20056;-68
2022/03/20 16:20:47;;;;;;;4.97;4.50;;;;;;;10.90;24.33;101948.75;10472174;28;20052;-69
2022/03/20 16:31:13;;;;;;;5.63;5.13;;;;;;;10.61;24.91;101954.94;10471634;28;20068;-68
2022/03/20 16:36:20;;;;;;;7.07;4.82;;;;;;;10.31;26.19;101953.19;10472795;28;20063;-69
2022/03/20 16:41:25;;;;;;;8.07;4.97;;;;;;;10.32;25.54;101947.09;10468077;28;20037;-69
2022/03/20 16:46:27;;;;;;;5.93;5.32;;;;;;;10.21;26.48;101948.78;10472640;28;20049;-70
2022/03/20 16:51:31;;;;;;;6.80;4.63;;;;;;;10.11;26.37;101948.78;10473051;28;20044;-68
2022/03/20 16:56:33;;;;;;;5.95;5.35;;;;;;;9.94;26.83;101955.78;10472283;28;20051;-68
2022/03/20 17:01:37;;;;;;;6.45;5.47;;;;;;;9.83;26.39;101966.28;10468662;28;20045;-69
2022/03/20 17:06:42;;;;;;;6.05;5.50;;;;;;;9.67;26.54;101964.47;10466790;28;20049;-69
2022/03/20 17:11:51;;;;;;;8.45;5.68;;;;;;;9.62;27.60;101974.09;10452367;28;20605;-68
2022/03/20 17:16:59;;;;;;;8.07;5.22;;;;;;;9.54;26.59;101966.19;10452531;28;20045;-69
2022/03/20 17:22:05;;;;;;;5.22;4.82;;;;;;;9.43;26.61;101972.25;10470662;28;20098;-69
2022/03/20 17:27:15;;;;;;;6.37;5.77;;;;;;;9.29;27.27;101974.81;10373798;22;1085181;-67
2022/03/20 17:32:16;;;;;;;6.43;5.82;;;;;;;9.22;26.96;101983.56;10375367;28;20288;-67
2022/03/20 17:37:18;;;;;;;7.63;5.82;;;;;;;9.03;26.90;101990.44;10385891;28;20069;-68
2022/03/20 17:42:20;;;;;;;6.45;5.85;;;;;;;8.98;27.52;102000.03;10385712;28;20076;-68
2022/03/20 17:47:32;;;;;;;6.05;5.45;;;;;;;9.01;26.77;102000.06;10382614;28;20503;-67
2022/03/20 17:52:34;;;;;;;6.57;5.97;;;;;;;8.95;26.61;102011.38;10383143;28;20062;-68
2022/03/20 17:57:36;;;;;;;7.00;6.35;;;;;;;8.65;27.64;102011.16;10383190;28;20049;-67
2022/03/20 18:07:59;;;;;;;6.93;5.45;;;;;;;8.66;27.33;102005.06;10384054;28;20050;-67
2022/03/20 18:13:02;;;;;;;12.30;6.18;;;;;;;8.50;27.67;101991.84;10365637;28;20092;-67
2022/03/20 18:18:05;;;;;;;6.90;6.15;;;;;;;8.44;27.92;101990.91;10383356;28;20042;-69
2022/03/20 18:23:08;;;;;;;7.47;6.05;;;;;;;8.25;28.48;101988.09;10381677;28;20489;-67
2022/03/20 18:28:10;;;;;;;7.13;6.53;;;;;;;8.13;28.75;102001.06;10379783;28;20391;-67
2022/03/20 18:33:12;;;;;;;7.07;6.45;;;;;;;7.93;29.06;102005.25;10380452;28;20073;-69
2022/03/20 18:38:14;;;;;;;6.50;5.80;;;;;;;7.91;30.13;102013.06;10382366;28;20415;-69
2022/03/20 18:43:15;;;;;;;7.20;6.55;;;;;;;7.93;29.42;102018.34;10380409;28;20507;-68
2022/03/20 18:48:17;;;;;;;12.02;6.82;;;;;;;7.81;30.17;102019.94;10380315;28;20057;-68
2022/03/20 18:53:18;;;;;;;8.45;7.15;;;;;;;7.76;30.29;102020.75;10379670;28;20129;-68
2022/03/20 18:58:22;;;;;;;7.93;7.28;;;;;;;7.45;30.87;102035.22;10381033;28;20579;-68
2022/03/20 19:03:25;;;;;;;8.43;7.63;;;;;;;7.62;30.80;102040.66;10380573;28;20549;-68
2022/03/20 19:08:28;;;;;;;8.93;8.13;;;;;;;7.54;31.45;102036.19;10380187;28;20419;-68
2022/03/20 19:13:30;;;;;;;10.43;9.52;;;;;;;7.58;32.01;102039.75;10379923;28;20041;-68
2022/03/20 19:18:32;;;;;;;9.57;8.63;;;;;;;7.57;31.76;102038.88;10412187;28;20411;-69
2022/03/20 19:23:34;;;;;;;10.38;9.48;;;;;;;7.38;31.82;102036.84;10421267;28;20046;-67
2022/03/20 19:28:35;;;;;;;10.65;9.65;;;;;;;7.26;32.77;102029.75;10419653;28;20045;-68
2022/03/20 19:33:37;;;;;;;11.60;10.60;;;;;;;7.38;32.46;102033.38;10419583;28;20045;-68
2022/03/20 19:43:59;;;;;;;12.32;11.13;;;;;;;7.11;33.50;102046.94;10419435;28;20076;-67
2022/03/20 19:49:01;;;;;;;12.88;11.70;;;;;;;6.85;33.97;102041.31;10420931;28;20057;-68
2022/03/20 19:54:03;;;;;;;12.23;11.23;;;;;;;6.91;33.93;102049.28;10419924;28;20057;-68
2022/03/20 19:59:04;;;;;;;13.20;11.07;;;;;;;6.77;34.33;102031.63;10420860;28;20578;-68
2022/03/20 20:04:06;;;;;;;11.63;10.63;;;;;;;6.78;34.34;102036.00;10402799;28;20067;-68
2022/03/20 20:09:12;;;;;;;13.18;11.05;;;;;;;6.74;34.00;102034.19;10418402;28;20125;-66
2022/03/20 20:19:36;;;;;;;12.30;11.20;;;;;;;6.66;34.07;102037.53;10420256;28;20045;-68
2022/03/20 20:24:38;;;;;;;12.40;11.30;;;;;;;6.80;33.57;102039.50;10417891;28;20059;-69
2022/03/20 20:29:40;;;;;;;11.50;10.40;;;;;;;6.61;34.14;102042.69;10418637;28;20115;-67
2022/03/20 20:34:44;;;;;;;11.45;10.55;;;;;;;6.73;33.73;102032.44;10417766;28;20055;-68
2022/03/20 20:39:48;;;;;;;10.95;9.75;;;;;;;6.74;33.73;102035.94;10419585;28;20038;-67
2022/03/20 20:44:50;;;;;;;10.98;9.88;;;;;;;6.61;34.31;102041.81;10419594;28;20086;-68
2022/03/20 20:49:52;;;;;;;12.38;10.65;;;;;;;6.71;33.76;102041.09;10417565;28;20163;-66
2022/03/20 20:54:54;;;;;;;10.25;9.38;;;;;;;6.37;34.75;102032.69;10418027;28;20483;-67
2022/03/20 20:59:56;;;;;;;11.07;10.00;;;;;;;6.55;34.77;102026.88;10418749;28;20056;-69
2022/03/20 21:04:58;;;;;;;10.63;9.68;;;;;;;6.43;34.66;102031.94;10417849;28;20053;-69
2022/03/20 21:15:19;;;;;;;10.68;9.70;;;;;;;6.26;34.85;102021.19;10426359;28;20076;-68
2022/03/20 21:20:23;;;;;;;10.65;9.75;;;;;;;6.21;35.04;102021.09;10424863;28;20045;-68
2022/03/20 21:25:24;;;;;;;10.57;9.77;;;;;;;6.04;35.54;102026.00;10424923;28;20037;-68
2022/03/20 21:30:26;;;;;;;11.52;10.43;;;;;;;5.95;35.59;102025.84;10424367;28;20057;-67
2022/03/20 21:35:28;;;;;;;11.35;10.35;;;;;;;5.55;36.44;102029.38;10423845;28;20053;-67
2022/03/20 21:40:30;;;;;;;10.25;9.27;;;;;;;5.39;36.70;102025.53;10425041;28;20397;-68
2022/03/20 21:45:35;;;;;;;10.27;9.27;;;;;;;5.60;36.61;102029.44;10424579;28;20044;-68
2022/03/20 21:50:37;;;;;;;10.80;9.43;;;;;;;5.39;36.50;102032.50;10424366;28;20069;-68
2022/03/20 21:55:39;;;;;;;9.90;9.00;;;;;;;5.31;36.91;102029.69;10425983;28;20376;-68
2022/03/20 22:00:41;;;;;;;11.95;9.40;;;;;;;5.74;35.91;102034.09;10425369;28;20049;-67
2022/03/20 22:05:43;;;;;;;10.00;9.10;;;;;;;5.72;36.14;102035.81;10424679;28;20091;-69
2022/03/20 22:10:45;;;;;;;10.98;9.88;;;;;;;5.41;36.41;102042.13;10425083;28;20047;-68
2022/03/20 22:15:49;;;;;;;10.30;9.38;;;;;;;5.09;36.99;102041.41;10424544;28;20045;-67
2022/03/20 22:20:52;;;;;;;11.40;10.30;;;;;;;4.90;37.58;102037.47;10424761;28;20525;-67
2022/03/20 22:25:55;;;;;;;11.48;9.38;;;;;;;4.90;37.11;102040.09;10424490;28;20091;-68
2022/03/20 22:30:57;;;;;;;11.18;10.10;;;;;;;4.87;37.31;102037.44;10423510;28;20121;-68
2022/03/20 22:41:19;;;;;;;9.60;8.68;;;;;;;4.66;37.79;102039.50;10425752;28;20045;-67
2022/03/20 22:46:21;;;;;;;10.20;9.30;;;;;;;4.47;38.16;102028.66;10424417;28;20042;-67
2022/03/20 22:51:23;;;;;;;10.20;8.25;;;;;;;4.43;38.42;102029.41;10422499;28;20053;-67
2022/03/20 22:56:25;;;;;;;9.98;8.98;;;;;;;4.43;38.31;102034.63;10423597;28;20049;-69
2022/03/20 23:01:27;;;;;;;10.48;9.23;;;;;;;4.99;37.46;102019.44;10423050;28;20045;-67
2022/03/20 23:06:32;;;;;;;10.77;9.73;;;;;;;4.49;38.51;102029.56;10421315;28;20051;-68
2022/03/20 23:11:38;;;;;;;11.05;10.15;;;;;;;4.40;38.39;102020.63;10424777;28;20445;-67
2022/03/20 23:16:40;;;;;;;11.00;9.50;;;;;;;4.26;38.96;102021.16;10422092;28;20128;-68
2022/03/20 23:21:42;;;;;;;10.00;9.05;;;;;;;4.21;38.89;102029.69;10421037;28;20450;-67
2022/03/20 23:26:44;;;;;;;10.32;9.38;;;;;;;4.13;39.10;102041.63;10419323;28;20096;-71
2022/03/20 23:31:46;;;;;;;10.95;9.85;;;;;;;4.57;40.97;102042.78;10420760;28;20041;-69
2022/03/20 23:36:48;;;;;;;9.88;8.98;;;;;;;4.45;40.42;102040.72;10419846;28;20128;-70
2022/03/20 23:47:10;;;;;;;10.25;9.25;;;;;;;4.18;39.86;102043.50;10419812;28;20092;-70
2022/03/20 23:52:12;;;;;;;11.25;8.50;;;;;;;4.52;38.04;102037.44;10419384;28;20503;-69
2022/03/20 23:57:13;;;;;;;9.95;8.85;;;;;;;4.79;37.55;102032.03;10418795;28;20041;-69
